Time;durP1;ratioP1;P1;durP2;ratioP2;P2;SDS_P1;SDS_P2;PMS_P1;PMS_P2;Temp;Humidity;BMP_temperature;BMP_pressure;BME280_temperature;BME280_humidity;BME280_pressure;Samples;Min_cycle;Max_cycle;Signal;HPM_P1;HPM_P2
2023/08/20 00:01:21;;;;;;;10.90;8.70;;;;;;;;;;103646;1291;547775;-77
2023/08/20 00:04:57;;;;;;;11.40;9.60;;;;;;;;;;103345;1293;548105;-79
2023/08/20 00:08:34;;;;;;;11.90;9.20;;;;;;;;;;103623;1292;547809;-76
2023/08/20 00:12:11;;;;;;;11.80;9.60;;;;;;;;;;103898;1286;548077;-75
2023/08/20 00:15:48;;;;;;;12.60;9.80;;;;;;;;;;103580;1292;547932;-78
2023/08/20 00:19:26;;;;;;;11.00;9.30;;;;;;;;;;103587;1291;547890;-78
2023/08/20 00:23:04;;;;;;;13.50;10.90;;;;;;;;;;103702;1291;548123;-80
2023/08/20 00:26:41;;;;;;;15.60;10.70;;;;;;;;;;103682;1290;547860;-78
2023/08/20 00:40:40;;;;;;;12.30;9.50;;;;;;;;;;104343;1286;553888;-75
2023/08/20 00:43:38;;;;;;;11.40;9.50;;;;;;;;;;103345;1295;547794;-79
2023/08/20 00:47:10;;;;;;;12.20;8.90;;;;;;;;;;103759;1292;545673;-77
2023/08/20 00:50:53;;;;;;;13.20;9.50;;;;;;;;;;103657;1292;546581;-78
2023/08/20 00:54:31;;;;;;;12.60;9.70;;;;;;;;;;103449;1291;545601;-75
2023/08/20 00:58:08;;;;;;;13.20;10.40;;;;;;;;;;103622;1296;547937;-80
2023/08/20 01:01:39;;;;;;;13.90;9.80;;;;;;;;;;103743;1289;544928;-78
2023/08/20 01:05:23;;;;;;;12.30;9.90;;;;;;;;;;103679;1292;547814;-77
2023/08/20 01:09:06;;;;;;;14.90;10.40;;;;;;;;;;103774;1291;548009;-77
2023/08/20 01:12:38;;;;;;;11.90;10.20;;;;;;;;;;103642;1292;547862;-78
2023/08/20 01:16:15;;;;;;;12.30;10.00;;;;;;;;;;103799;1289;548131;-77
2023/08/20 01:19:52;;;;;;;13.50;10.20;;;;;;;;;;103563;1295;547747;-78
2023/08/20 01:23:40;;;;;;;12.60;10.40;;;;;;;;;;103630;1289;548033;-80
2023/08/20 01:27:05;;;;;;;12.90;10.80;;;;;;;;;;104045;1288;545020;-77
2023/08/20 01:30:45;;;;;;;13.00;10.10;;;;;;;;;;103680;1302;547826;-81
2023/08/20 01:34:23;;;;;;;12.50;10.40;;;;;;;;;;103696;1289;546086;-78
2023/08/20 01:38:00;;;;;;;14.80;11.00;;;;;;;;;;103501;1292;548353;-78
2023/08/20 01:41:38;;;;;;;13.10;10.20;;;;;;;;;;103557;1293;547784;-78
2023/08/20 01:45:15;;;;;;;14.00;10.50;;;;;;;;;;103484;1292;548050;-81
2023/08/20 01:48:52;;;;;;;12.00;10.10;;;;;;;;;;103740;1288;546010;-77
2023/08/20 01:52:30;;;;;;;12.50;9.90;;;;;;;;;;103490;1292;547991;-77
2023/08/20 01:56:11;;;;;;;12.60;10.00;;;;;;;;;;103577;1293;545196;-76
2023/08/20 01:59:44;;;;;;;12.10;9.80;;;;;;;;;;103606;1292;548006;-80
2023/08/20 02:03:22;;;;;;;13.70;10.00;;;;;;;;;;103615;1291;548136;-78
2023/08/20 02:07:00;;;;;;;16.00;11.20;;;;;;;;;;103687;1289;547952;-77
2023/08/20 02:10:37;;;;;;;15.60;10.70;;;;;;;;;;103479;1292;547968;-77
2023/08/20 02:14:14;;;;;;;14.40;11.00;;;;;;;;;;103594;1295;546288;-77
2023/08/20 02:17:52;;;;;;;16.40;11.50;;;;;;;;;;103352;1294;548042;-82
2023/08/20 02:21:29;;;;;;;16.30;10.80;;;;;;;;;;103604;1290;547807;-77
2023/08/20 02:25:07;;;;;;;16.50;12.20;;;;;;;;;;103513;1292;548007;-78
2023/08/20 02:28:44;;;;;;;13.90;10.80;;;;;;;;;;103552;1292;547752;-81
2023/08/20 02:32:22;;;;;;;14.70;10.20;;;;;;;;;;103517;1294;547977;-78
2023/08/20 02:36:03;;;;;;;12.70;9.90;;;;;;;;;;103649;1289;547746;-78
2023/08/20 02:39:37;;;;;;;14.20;12.20;;;;;;;;;;103695;1291;547947;-78
2023/08/20 02:43:14;;;;;;;17.20;12.70;;;;;;;;;;103565;1292;546068;-78
2023/08/20 02:46:52;;;;;;;13.00;11.00;;;;;;;;;;103607;1289;546158;-79
2023/08/20 02:50:30;;;;;;;15.30;11.50;;;;;;;;;;104051;1285;548001;-77
2023/08/20 02:54:07;;;;;;;14.20;11.40;;;;;;;;;;103339;1294;547826;-78
2023/08/20 02:57:44;;;;;;;18.10;12.00;;;;;;;;;;103497;1291;548022;-79
2023/08/20 03:01:23;;;;;;;14.60;11.50;;;;;;;;;;103573;1292;547832;-78
2023/08/20 03:04:59;;;;;;;15.20;11.80;;;;;;;;;;103929;1289;548461;-78
2023/08/20 03:08:37;;;;;;;14.20;10.80;;;;;;;;;;103751;1289;547982;-78
2023/08/20 03:12:14;;;;;;;15.90;12.20;;;;;;;;;;103730;1292;547985;-78
2023/08/20 03:15:51;;;;;;;14.70;11.70;;;;;;;;;;103707;1294;547947;-80
2023/08/20 03:19:35;;;;;;;15.20;12.60;;;;;;;;;;103559;1291;545852;-78
2023/08/20 03:23:01;;;;;;;16.50;12.80;;;;;;;;;;104051;1292;545218;-81
2023/08/20 03:26:46;;;;;;;19.10;12.60;;;;;;;;;;103477;1292;548170;-78
2023/08/20 03:30:21;;;;;;;14.80;11.20;;;;;;;;;;103603;1289;547903;-78
2023/08/20 03:33:59;;;;;;;17.80;12.20;;;;;;;;;;103569;1292;547884;-78
2023/08/20 03:37:36;;;;;;;16.00;13.20;;;;;;;;;;103536;1293;548001;-81
2023/08/20 03:41:14;;;;;;;17.10;12.30;;;;;;;;;;103493;1292;546349;-77
2023/08/20 03:44:51;;;;;;;12.00;10.10;;;;;;;;;;104284;1285;549361;-78
2023/08/20 03:48:23;;;;;;;13.70;10.40;;;;;;;;;;103466;1293;544974;-81
2023/08/20 03:52:06;;;;;;;19.90;12.40;;;;;;;;;;103553;1294;548279;-78
2023/08/20 03:55:49;;;;;;;15.00;10.60;;;;;;;;;;103793;1289;546423;-78
2023/08/20 03:59:21;;;;;;;14.50;11.20;;;;;;;;;;103602;1291;548453;-77
2023/08/20 04:02:58;;;;;;;17.20;12.60;;;;;;;;;;103502;1291;548263;-78
2023/08/20 04:06:36;;;;;;;16.80;11.50;;;;;;;;;;103644;1291;548004;-77
2023/08/20 04:10:13;;;;;;;15.50;11.50;;;;;;;;;;103640;1292;547910;-78
2023/08/20 04:13:51;;;;;;;18.70;12.00;;;;;;;;;;103646;1289;547986;-80
2023/08/20 04:17:28;;;;;;;17.80;11.90;;;;;;;;;;103639;1291;548117;-77
2023/08/20 04:21:07;;;;;;;13.70;11.70;;;;;;;;;;103508;1292;548039;-77
2023/08/20 04:24:43;;;;;;;14.40;11.20;;;;;;;;;;103541;1292;547890;-81
2023/08/20 04:28:21;;;;;;;16.00;12.50;;;;;;;;;;103636;1291;547985;-78
2023/08/20 04:31:54;;;;;;;14.20;11.10;;;;;;;;;;103640;1291;547927;-78
2023/08/20 04:35:36;;;;;;;15.30;10.50;;;;;;;;;;103556;1292;548442;-81
2023/08/20 04:39:13;;;;;;;13.30;10.80;;;;;;;;;;103893;1289;547906;-77
2023/08/20 04:42:51;;;;;;;16.10;11.50;;;;;;;;;;103638;1294;546156;-79
2023/08/20 04:46:28;;;;;;;17.40;11.60;;;;;;;;;;103552;1293;547959;-77
2023/08/20 04:50:06;;;;;;;14.30;10.40;;;;;;;;;;103620;1291;548008;-78
2023/08/20 04:53:43;;;;;;;14.30;10.80;;;;;;;;;;103567;1291;547782;-78
2023/08/20 04:57:20;;;;;;;13.50;10.40;;;;;;;;;;103542;1293;548090;-77
2023/08/20 05:00:58;;;;;;;13.10;10.40;;;;;;;;;;103337;1294;548007;-78
2023/08/20 05:04:35;;;;;;;11.90;10.00;;;;;;;;;;103658;1294;547958;-80
2023/08/20 05:08:13;;;;;;;13.80;10.20;;;;;;;;;;103626;1290;548102;-78
2023/08/20 05:11:50;;;;;;;12.10;9.70;;;;;;;;;;103450;1293;547937;-78
2023/08/20 05:15:28;;;;;;;12.30;9.80;;;;;;;;;;103335;1297;548157;-80
2023/08/20 05:19:05;;;;;;;12.70;9.40;;;;;;;;;;103554;1292;547936;-78
2023/08/20 05:22:43;;;;;;;11.90;9.30;;;;;;;;;;103553;1292;547818;-79
2023/08/20 05:26:21;;;;;;;13.40;10.20;;;;;;;;;;103562;1292;548097;-79
2023/08/20 05:29:58;;;;;;;11.70;9.00;;;;;;;;;;103510;1295;548039;-79
2023/08/20 05:33:35;;;;;;;9.90;7.20;;;;;;;;;;103739;1288;548021;-78
2023/08/20 05:37:09;;;;;;;12.70;7.60;;;;;;;;;;103791;1291;548584;-82
2023/08/20 05:40:46;;;;;;;11.30;8.20;;;;;;;;;;103653;1291;547981;-81
2023/08/20 05:44:22;;;;;;;9.70;7.60;;;;;;;;;;103836;1289;545152;-78
2023/08/20 05:48:02;;;;;;;8.60;7.00;;;;;;;;;;103635;1292;548133;-79
2023/08/20 05:51:43;;;;;;;9.80;7.60;;;;;;;;;;103466;1295;548011;-76
2023/08/20 05:55:20;;;;;;;10.00;7.70;;;;;;;;;;103647;1290;548169;-75
2023/08/20 05:58:57;;;;;;;8.70;7.10;;;;;;;;;;103609;1294;547985;-77
2023/08/20 06:02:35;;;;;;;13.10;8.10;;;;;;;;;;103550;1291;548000;-78
2023/08/20 06:06:12;;;;;;;10.20;7.50;;;;;;;;;;103613;1290;547820;-76
2023/08/20 06:09:50;;;;;;;11.10;7.70;;;;;;;;;;103672;1289;548145;-76
2023/08/20 06:13:27;;;;;;;10.40;7.60;;;;;;;;;;103523;1293;547826;-79
2023/08/20 06:17:05;;;;;;;12.60;7.70;;;;;;;;;;103621;1292;548049;-75
2023/08/20 06:20:37;;;;;;;11.00;7.60;;;;;;;;;;103834;1292;545190;-77
2023/08/20 06:24:20;;;;;;;9.30;7.40;;;;;;;;;;103758;1290;548378;-78
2023/08/20 06:27:54;;;;;;;9.80;6.80;;;;;;;;;;103517;1293;547801;-75
2023/08/20 06:31:35;;;;;;;9.90;7.10;;;;;;;;;;103386;1294;547954;-77
2023/08/20 06:35:08;;;;;;;9.40;7.00;;;;;;;;;;103716;1292;545062;-76
2023/08/20 06:38:49;;;;;;;9.90;7.50;;;;;;;;;;104012;1288;545968;-77
2023/08/20 06:42:27;;;;;;;8.90;6.80;;;;;;;;;;103561;1289;547995;-77
2023/08/20 06:46:04;;;;;;;10.10;6.80;;;;;;;;;;103434;1294;545944;-78
2023/08/20 06:49:36;;;;;;;8.80;7.30;;;;;;;;;;103796;1292;544981;-77
2023/08/20 06:53:14;;;;;;;9.90;7.00;;;;;;;;;;103668;1298;545007;-79
2023/08/20 06:56:57;;;;;;;8.90;6.60;;;;;;;;;;103602;1293;547781;-77
2023/08/20 07:00:34;;;;;;;9.20;7.00;;;;;;;;;;103495;1295;548220;-78
2023/08/20 07:04:08;;;;;;;10.00;7.00;;;;;;;;;;103845;1289;547973;-76
2023/08/20 07:07:49;;;;;;;8.60;6.60;;;;;;;;;;103590;1290;546524;-78
2023/08/20 07:11:27;;;;;;;10.30;7.20;;;;;;;;;;103670;1291;548087;-79
2023/08/20 07:14:59;;;;;;;9.70;6.90;;;;;;;;;;103809;1292;545050;-77
2023/08/20 07:18:42;;;;;;;8.70;6.30;;;;;;;;;;103815;1289;547741;-79
2023/08/20 07:22:13;;;;;;;9.10;6.70;;;;;;;;;;103809;1289;545313;-80
2023/08/20 07:25:54;;;;;;;8.20;5.80;;;;;;;;;;104068;1301;544991;-76
2023/08/20 07:29:29;;;;;;;8.70;6.00;;;;;;;;;;103833;1289;545504;-77
2023/08/20 07:33:11;;;;;;;8.90;6.50;;;;;;;;;;103550;1292;548026;-77
2023/08/20 07:36:49;;;;;;;10.60;6.20;;;;;;;;;;103660;1292;546393;-78
2023/08/20 07:40:26;;;;;;;11.60;6.90;;;;;;;;;;103685;1292;547884;-75
2023/08/20 07:44:04;;;;;;;9.20;6.30;;;;;;;;;;103660;1289;548111;-77
2023/08/20 07:47:41;;;;;;;8.20;6.60;;;;;;;;;;103627;1289;547997;-79
2023/08/20 07:51:19;;;;;;;11.20;7.10;;;;;;;;;;103592;1293;547764;-79
2023/08/20 07:54:51;;;;;;;9.40;6.80;;;;;;;;;;104142;1294;544800;-79
2023/08/20 07:58:30;;;;;;;9.60;6.80;;;;;;;;;;103726;1292;547915;-77
2023/08/20 08:02:11;;;;;;;9.20;6.10;;;;;;;;;;103559;1292;548063;-78
2023/08/20 08:05:50;;;;;;;9.80;6.80;;;;;;;;;;103790;1289;547924;-79
2023/08/20 08:09:21;;;;;;;10.30;6.80;;;;;;;;;;103871;1289;544941;-77
2023/08/20 08:13:03;;;;;;;8.90;7.10;;;;;;;;;;103555;1289;547865;-77
2023/08/20 08:16:41;;;;;;;10.00;7.40;;;;;;;;;;103603;1290;548003;-76
2023/08/20 08:20:15;;;;;;;8.90;7.20;;;;;;;;;;103584;1295;548149;-75
2023/08/20 08:23:50;;;;;;;9.40;7.00;;;;;;;;;;103666;1291;545111;-75
2023/08/20 08:27:28;;;;;;;8.70;6.60;;;;;;;;;;103801;1292;545162;-77
2023/08/20 08:31:05;;;;;;;10.10;6.90;;;;;;;;;;103755;1295;545971;-80
2023/08/20 08:34:43;;;;;;;10.40;7.10;;;;;;;;;;103870;1289;545468;-79
2023/08/20 08:38:20;;;;;;;9.50;7.40;;;;;;;;;;103726;1289;545164;-77
2023/08/20 08:42:04;;;;;;;8.20;5.80;;;;;;;;;;103626;1292;547809;-81
2023/08/20 08:45:35;;;;;;;10.20;6.10;;;;;;;;;;103738;1290;544713;-78
2023/08/20 08:49:13;;;;;;;8.50;6.50;;;;;;;;;;103744;1291;544816;-77
2023/08/20 08:52:51;;;;;;;10.50;6.80;;;;;;;;;;103750;1292;544850;-76
2023/08/20 08:56:28;;;;;;;9.20;6.60;;;;;;;;;;103750;1291;544846;-76
2023/08/20 09:00:05;;;;;;;9.50;6.30;;;;;;;;;;103806;1292;544738;-77
2023/08/20 09:03:49;;;;;;;8.60;6.10;;;;;;;;;;103631;1292;548105;-78
2023/08/20 09:07:20;;;;;;;9.90;7.10;;;;;;;;;;104555;1286;544991;-78
2023/08/20 09:11:03;;;;;;;8.80;6.00;;;;;;;;;;103609;1293;547754;-75
2023/08/20 09:14:43;;;;;;;8.30;6.10;;;;;;;;;;103827;1286;548447;-75
2023/08/20 09:18:18;;;;;;;8.80;5.80;;;;;;;;;;103608;1291;548481;-78
2023/08/20 09:21:52;;;;;;;9.70;6.10;;;;;;;;;;104040;1288;545444;-77
2023/08/20 09:25:27;;;;;;;10.40;7.10;;;;;;;;;;103728;1289;545093;-77
2023/08/20 09:29:10;;;;;;;9.90;6.50;;;;;;;;;;103619;1292;548040;-74
2023/08/20 09:32:42;;;;;;;9.00;5.60;;;;;;;;;;104160;1288;545419;-77
2023/08/20 09:36:29;;;;;;;8.20;5.80;;;;;;;;;;103782;1292;545482;-75
2023/08/20 09:39:57;;;;;;;8.00;5.50;;;;;;;;;;103764;1292;544973;-81
2023/08/20 09:43:38;;;;;;;10.60;6.20;;;;;;;;;;103995;1291;544932;-74
2023/08/20 09:47:13;;;;;;;9.00;5.80;;;;;;;;;;103783;1292;545036;-75
2023/08/20 09:50:51;;;;;;;10.20;6.50;;;;;;;;;;103715;1292;544914;-74
2023/08/20 09:54:32;;;;;;;9.00;5.80;;;;;;;;;;103265;1294;547970;-73
2023/08/20 09:58:05;;;;;;;9.70;6.70;;;;;;;;;;104033;1292;545688;-75
2023/08/20 10:01:48;;;;;;;9.60;6.40;;;;;;;;;;103556;1292;547948;-75
2023/08/20 10:05:20;;;;;;;9.20;6.40;;;;;;;;;;104092;1286;544722;-75
2023/08/20 10:08:53;;;;;;;9.30;6.80;;;;;;;;;;103917;1292;545136;-74
2023/08/20 10:12:38;;;;;;;8.90;6.90;;;;;;;;;;103698;1291;545730;-76
2023/08/20 10:16:21;;;;;;;8.20;6.50;;;;;;;;;;103548;1292;547914;-77
2023/08/20 10:19:57;;;;;;;8.60;6.70;;;;;;;;;;103661;1290;547956;-80
2023/08/20 10:23:27;;;;;;;10.70;6.40;;;;;;;;;;104043;1289;545015;-78
2023/08/20 10:27:09;;;;;;;10.50;6.60;;;;;;;;;;103832;1289;545990;-78
2023/08/20 10:31:01;;;;;;;7.50;5.50;;;;;;;;;;103969;1293;544918;-75
2023/08/20 10:34:37;;;;;;;9.90;6.50;;;;;;;;;;103652;1289;545761;-75
2023/08/20 10:38:05;;;;;;;9.30;6.50;;;;;;;;;;103740;1292;545369;-76
2023/08/20 10:41:41;;;;;;;9.20;6.30;;;;;;;;;;103577;1292;547776;-79
2023/08/20 10:45:18;;;;;;;8.40;6.10;;;;;;;;;;103709;1289;548758;-76
2023/08/20 10:48:50;;;;;;;11.20;6.20;;;;;;;;;;103957;1290;544779;-78
2023/08/20 10:52:38;;;;;;;8.20;5.90;;;;;;;;;;103643;1292;548133;-76
2023/08/20 10:56:14;;;;;;;9.10;6.60;;;;;;;;;;103541;1292;547927;-75
2023/08/20 10:59:42;;;;;;;8.40;6.60;;;;;;;;;;103771;1292;544977;-76
2023/08/20 11:03:26;;;;;;;10.20;6.70;;;;;;;;;;103597;1294;548012;-76
2023/08/20 11:06:57;;;;;;;9.00;6.80;;;;;;;;;;103994;1288;544760;-77
2023/08/20 11:10:35;;;;;;;8.90;6.70;;;;;;;;;;103687;1292;544754;-75
2023/08/20 11:14:13;;;;;;;8.70;6.30;;;;;;;;;;103751;1289;545405;-75
2023/08/20 11:17:52;;;;;;;10.10;6.20;;;;;;;;;;103737;1292;548070;-75
2023/08/20 11:21:28;;;;;;;10.70;6.60;;;;;;;;;;103511;1294;544958;-77
2023/08/20 11:25:04;;;;;;;8.90;6.00;;;;;;;;;;103705;1295;545348;-75
2023/08/20 11:28:45;;;;;;;10.40;7.10;;;;;;;;;;103749;1289;544633;-77
2023/08/20 11:32:19;;;;;;;11.50;7.40;;;;;;;;;;103948;1291;544847;-77
2023/08/20 11:35:57;;;;;;;11.90;7.50;;;;;;;;;;103753;1289;546331;-76
2023/08/20 11:39:36;;;;;;;10.40;6.90;;;;;;;;;;103967;1289;545508;-76
2023/08/20 11:43:17;;;;;;;9.40;7.40;;;;;;;;;;103609;1293;547780;-77
2023/08/20 11:46:49;;;;;;;9.00;6.80;;;;;;;;;;103754;1295;544809;-77
2023/08/20 11:50:26;;;;;;;9.10;6.90;;;;;;;;;;103753;1288;544914;-76
2023/08/20 11:54:05;;;;;;;10.00;6.70;;;;;;;;;;103715;1292;545512;-77
2023/08/20 11:57:41;;;;;;;8.70;7.00;;;;;;;;;;104004;1290;545155;-76
2023/08/20 12:01:15;;;;;;;8.90;7.10;;;;;;;;;;103891;1290;546000;-76
2023/08/20 12:04:55;;;;;;;8.80;7.10;;;;;;;;;;104110;1288;545420;-77
2023/08/20 12:08:43;;;;;;;10.90;7.40;;;;;;;;;;103593;1288;547841;-75
2023/08/20 12:12:21;;;;;;;9.40;7.20;;;;;;;;;;103519;1290;547766;-77
2023/08/20 12:15:53;;;;;;;11.80;7.10;;;;;;;;;;103703;1294;544827;-75
2023/08/20 12:19:30;;;;;;;9.10;7.10;;;;;;;;;;103792;1289;545046;-76
2023/08/20 12:23:13;;;;;;;9.50;7.30;;;;;;;;;;103416;1292;548229;-76
2023/08/20 12:26:51;;;;;;;10.40;7.30;;;;;;;;;;103772;1289;548066;-77
2023/08/20 12:30:28;;;;;;;9.60;6.70;;;;;;;;;;103632;1292;547813;-74
2023/08/20 12:34:00;;;;;;;9.10;6.50;;;;;;;;;;103970;1289;544820;-78
2023/08/20 12:37:37;;;;;;;9.20;6.10;;;;;;;;;;103984;1291;545484;-75
2023/08/20 12:41:15;;;;;;;8.40;5.70;;;;;;;;;;103715;1289;544785;-72
2023/08/20 12:44:52;;;;;;;9.70;7.20;;;;;;;;;;103738;1289;544848;-76
2023/08/20 12:48:30;;;;;;;8.70;6.90;;;;;;;;;;103923;1288;544773;-78
2023/08/20 12:52:08;;;;;;;9.20;7.20;;;;;;;;;;103775;1290;544811;-76
2023/08/20 12:55:45;;;;;;;9.50;5.80;;;;;;;;;;103694;1295;544795;-73
2023/08/20 12:59:22;;;;;;;11.30;6.90;;;;;;;;;;103760;1291;544775;-79
2023/08/20 13:02:59;;;;;;;8.70;6.80;;;;;;;;;;103739;1293;545607;-78
2023/08/20 13:06:43;;;;;;;9.70;7.30;;;;;;;;;;103587;1298;547771;-79
2023/08/20 13:10:15;;;;;;;10.10;6.80;;;;;;;;;;103653;1291;545391;-77
2023/08/20 13:13:52;;;;;;;9.10;6.90;;;;;;;;;;103760;1291;544941;-78
2023/08/20 13:17:30;;;;;;;10.00;7.00;;;;;;;;;;103808;1301;545075;-77
2023/08/20 13:21:08;;;;;;;9.30;6.50;;;;;;;;;;103748;1290;545820;-77
2023/08/20 13:24:44;;;;;;;9.00;6.50;;;;;;;;;;104054;1289;545024;-77
2023/08/20 13:28:22;;;;;;;9.00;6.40;;;;;;;;;;103846;1292;545648;-77
2023/08/20 13:32:05;;;;;;;9.30;6.70;;;;;;;;;;103592;1291;548046;-76
2023/08/20 13:35:37;;;;;;;9.40;6.80;;;;;;;;;;103686;1290;545064;-76
2023/08/20 13:39:13;;;;;;;10.30;6.90;;;;;;;;;;104108;1298;545400;-77
2023/08/20 13:42:55;;;;;;;9.80;7.00;;;;;;;;;;104655;1286;544667;-77
2023/08/20 13:46:32;;;;;;;9.50;6.00;;;;;;;;;;103757;1294;545496;-75
2023/08/20 13:50:10;;;;;;;8.80;6.50;;;;;;;;;;103878;1288;545438;-77
2023/08/20 13:53:47;;;;;;;11.70;7.20;;;;;;;;;;103745;1302;545137;-76
2023/08/20 13:57:25;;;;;;;8.60;6.10;;;;;;;;;;103814;1291;544777;-81
2023/08/20 14:01:02;;;;;;;9.20;6.50;;;;;;;;;;103810;1292;544944;-76
2023/08/20 14:04:46;;;;;;;10.10;7.10;;;;;;;;;;103610;1292;548245;-76
2023/08/20 14:08:17;;;;;;;9.60;5.70;;;;;;;;;;103749;1290;545277;-74
2023/08/20 14:11:55;;;;;;;8.40;5.60;;;;;;;;;;103759;1292;544789;-74
2023/08/20 14:15:38;;;;;;;10.80;6.30;;;;;;;;;;103862;1292;548069;-79
2023/08/20 14:19:15;;;;;;;9.70;5.70;;;;;;;;;;103519;1292;547810;-75
2023/08/20 14:22:47;;;;;;;9.20;6.00;;;;;;;;;;103744;1291;545499;-81
2023/08/20 14:26:25;;;;;;;9.40;6.40;;;;;;;;;;103624;1295;545011;-80
2023/08/20 14:30:08;;;;;;;9.50;5.90;;;;;;;;;;103527;1293;546228;-78
2023/08/20 14:33:40;;;;;;;9.80;6.20;;;;;;;;;;103898;1288;545955;-78
2023/08/20 14:37:17;;;;;;;7.50;6.00;;;;;;;;;;103790;1292;544807;-76
2023/08/20 14:41:01;;;;;;;9.10;5.50;;;;;;;;;;103565;1291;548200;-75
2023/08/20 14:44:32;;;;;;;8.70;5.90;;;;;;;;;;103930;1289;544740;-75
2023/08/20 14:48:10;;;;;;;8.40;6.10;;;;;;;;;;103796;1290;544770;-75
2023/08/20 14:51:48;;;;;;;8.00;5.90;;;;;;;;;;103613;1291;544776;-77
2023/08/20 14:55:30;;;;;;;9.50;6.10;;;;;;;;;;103267;1294;548077;-75
2023/08/20 14:59:09;;;;;;;8.60;6.40;;;;;;;;;;103487;1291;548045;-77
2023/08/20 15:02:40;;;;;;;9.70;6.00;;;;;;;;;;103740;1289;546134;-75
2023/08/20 15:06:21;;;;;;;9.70;6.90;;;;;;;;;;103968;1293;544816;-76
2023/08/20 15:09:54;;;;;;;9.80;6.20;;;;;;;;;;104006;1292;544774;-78
2023/08/20 15:13:32;;;;;;;9.70;6.20;;;;;;;;;;103748;1292;544807;-76
2023/08/20 15:17:15;;;;;;;9.30;6.50;;;;;;;;;;103611;1291;548158;-77
2023/08/20 15:20:53;;;;;;;10.30;7.40;;;;;;;;;;103553;1291;547937;-75
2023/08/20 15:24:24;;;;;;;9.50;7.10;;;;;;;;;;103734;1292;544804;-78
2023/08/20 15:28:03;;;;;;;11.10;6.60;;;;;;;;;;103985;1292;544810;-77
2023/08/20 15:31:39;;;;;;;10.40;7.10;;;;;;;;;;103737;1292;544788;-76
2023/08/20 15:35:17;;;;;;;9.90;7.30;;;;;;;;;;103793;1292;544756;-76
2023/08/20 15:38:54;;;;;;;12.00;8.00;;;;;;;;;;103765;1290;545511;-78
2023/08/20 15:42:57;;;;;;;10.00;7.90;;;;;;;;;;103656;1294;547921;-77
2023/08/20 15:46:09;;;;;;;9.30;7.50;;;;;;;;;;103776;1292;546320;-78
2023/08/20 15:49:52;;;;;;;13.80;8.50;;;;;;;;;;103610;1296;547878;-76
2023/08/20 15:53:30;;;;;;;10.40;7.80;;;;;;;;;;103453;1291;548089;-79
2023/08/20 15:57:02;;;;;;;11.20;8.90;;;;;;;;;;104355;1289;545064;-78
2023/08/20 16:00:41;;;;;;;9.60;7.10;;;;;;;;;;103683;1290;547897;-77
2023/08/20 16:14:39;;;;;;;10.10;7.40;;;;;;;;;;104222;1288;550466;-78
2023/08/20 16:17:34;;;;;;;12.50;8.30;;;;;;;;;;103757;1291;544917;-76
2023/08/20 16:31:31;;;;;;;9.80;8.20;;;;;;;;;;104602;1285;550338;-75
2023/08/20 16:34:29;;;;;;;9.70;8.60;;;;;;;;;;103282;1294;548205;-78
2023/08/20 16:38:06;;;;;;;10.70;8.90;;;;;;;;;;103640;1292;548000;-76
2023/08/20 16:41:38;;;;;;;11.50;8.40;;;;;;;;;;104281;1286;545105;-77
2023/08/20 16:45:21;;;;;;;10.60;8.50;;;;;;;;;;103985;1289;547799;-79
2023/08/20 16:48:53;;;;;;;11.10;8.80;;;;;;;;;;103730;1294;545574;-77
2023/08/20 16:52:36;;;;;;;11.20;9.00;;;;;;;;;;103526;1291;548125;-79
2023/08/20 16:56:07;;;;;;;11.10;9.60;;;;;;;;;;104207;1288;545049;-79
2023/08/20 16:59:45;;;;;;;11.30;9.60;;;;;;;;;;103506;1293;545972;-77
2023/08/20 17:03:23;;;;;;;12.10;9.90;;;;;;;;;;104178;1286;544759;-79
2023/08/20 17:07:00;;;;;;;12.40;9.90;;;;;;;;;;103708;1291;546281;-75
2023/08/20 17:10:37;;;;;;;14.40;11.30;;;;;;;;;;103499;1294;544857;-75
2023/08/20 17:14:15;;;;;;;15.20;11.50;;;;;;;;;;103728;1296;544738;-77
2023/08/20 17:17:58;;;;;;;14.90;11.30;;;;;;;;;;103568;1290;548162;-77
2023/08/20 17:21:35;;;;;;;13.70;10.60;;;;;;;;;;103441;1291;547944;-78
2023/08/20 17:25:13;;;;;;;13.60;11.80;;;;;;;;;;103586;1290;548010;-76
2023/08/20 17:28:46;;;;;;;13.90;11.60;;;;;;;;;;103530;1294;544936;-78
2023/08/20 17:32:28;;;;;;;13.20;11.00;;;;;;;;;;103628;1290;547986;-75
2023/08/20 17:36:00;;;;;;;13.80;11.80;;;;;;;;;;103511;1294;545605;-79
2023/08/20 17:39:42;;;;;;;15.20;11.70;;;;;;;;;;103364;1295;547816;-79
2023/08/20 17:43:15;;;;;;;15.40;12.00;;;;;;;;;;103650;1291;544805;-79
2023/08/20 17:46:52;;;;;;;19.40;15.50;;;;;;;;;;103744;1289;545498;-79
2023/08/20 17:50:36;;;;;;;19.60;17.40;;;;;;;;;;103216;1294;547816;-78
2023/08/20 17:54:13;;;;;;;20.70;17.50;;;;;;;;;;103694;1290;547934;-80
2023/08/20 17:57:41;;;;;;;17.20;15.00;;;;;;;;;;103852;1292;545311;-77
2023/08/20 18:01:28;;;;;;;14.90;13.10;;;;;;;;;;103543;1291;545400;-78
2023/08/20 18:05:07;;;;;;;14.30;11.50;;;;;;;;;;103461;1292;547987;-76
2023/08/20 18:08:38;;;;;;;12.90;10.10;;;;;;;;;;103732;1292;544943;-77
2023/08/20 18:12:15;;;;;;;13.30;11.70;;;;;;;;;;103876;1289;545509;-78
2023/08/20 18:15:58;;;;;;;17.70;11.80;;;;;;;;;;103617;1291;547811;-77
2023/08/20 18:19:36;;;;;;;15.90;12.30;;;;;;;;;;103474;1291;548441;-79
2023/08/20 18:23:07;;;;;;;13.90;11.40;;;;;;;;;;103939;1289;545906;-76
2023/08/20 18:26:45;;;;;;;14.20;10.70;;;;;;;;;;103788;1290;545532;-77
2023/08/20 18:30:29;;;;;;;14.40;11.30;;;;;;;;;;103800;1288;547776;-77
2023/08/20 18:34:00;;;;;;;15.60;12.00;;;;;;;;;;103796;1290;545461;-76
2023/08/20 18:37:43;;;;;;;14.50;12.00;;;;;;;;;;103628;1290;548013;-78
2023/08/20 18:41:17;;;;;;;15.00;10.90;;;;;;;;;;103716;1292;545384;-76
2023/08/20 18:44:58;;;;;;;14.20;11.30;;;;;;;;;;103513;1292;548113;-79
2023/08/20 18:48:34;;;;;;;15.40;12.50;;;;;;;;;;103729;1291;544954;-77
2023/08/20 18:52:13;;;;;;;17.40;13.60;;;;;;;;;;103568;1297;548399;-79
2023/08/20 18:55:50;;;;;;;14.60;12.10;;;;;;;;;;103642;1289;547986;-77
2023/08/20 18:59:22;;;;;;;15.10;12.90;;;;;;;;;;103793;1292;545008;-77
2023/08/20 19:03:06;;;;;;;17.00;12.60;;;;;;;;;;103594;1290;548329;-77
2023/08/20 19:06:44;;;;;;;16.70;13.70;;;;;;;;;;103487;1291;547812;-77
2023/08/20 19:10:20;;;;;;;15.70;13.70;;;;;;;;;;103660;1291;548449;-77
2023/08/20 19:13:58;;;;;;;13.60;12.20;;;;;;;;;;103637;1292;547766;-77
2023/08/20 19:17:36;;;;;;;14.20;10.80;;;;;;;;;;103621;1289;548008;-77
2023/08/20 19:21:07;;;;;;;16.60;11.00;;;;;;;;;;103779;1292;545049;-77
2023/08/20 19:24:50;;;;;;;14.50;11.50;;;;;;;;;;103291;1295;547942;-75
2023/08/20 19:28:28;;;;;;;14.20;10.40;;;;;;;;;;103473;1292;546605;-75
2023/08/20 19:32:05;;;;;;;14.50;10.00;;;;;;;;;;103613;1291;547779;-77
2023/08/20 19:35:37;;;;;;;12.60;10.20;;;;;;;;;;103761;1291;545299;-77
2023/08/20 19:39:15;;;;;;;13.30;10.20;;;;;;;;;;103986;1290;544827;-77
2023/08/20 19:42:57;;;;;;;14.20;10.70;;;;;;;;;;103410;1297;548013;-77
2023/08/20 19:46:35;;;;;;;14.10;11.00;;;;;;;;;;103685;1295;545823;-79
2023/08/20 19:50:06;;;;;;;12.80;10.50;;;;;;;;;;104618;1283;545398;-77
2023/08/20 19:53:50;;;;;;;11.70;9.70;;;;;;;;;;103586;1294;547921;-75
2023/08/20 19:57:27;;;;;;;14.20;11.50;;;;;;;;;;103614;1293;545402;-78
2023/08/20 20:01:03;;;;;;;16.50;12.20;;;;;;;;;;104075;1287;545001;-76
2023/08/20 20:04:42;;;;;;;16.50;12.40;;;;;;;;;;103725;1295;547842;-75
2023/08/20 20:08:14;;;;;;;16.50;12.30;;;;;;;;;;103701;1292;545386;-75
2023/08/20 20:11:52;;;;;;;15.00;11.90;;;;;;;;;;103781;1292;545268;-76
2023/08/20 20:15:35;;;;;;;16.00;13.40;;;;;;;;;;103647;1291;547991;-75
2023/08/20 20:19:06;;;;;;;15.30;12.00;;;;;;;;;;103969;1288;544941;-78
2023/08/20 20:22:44;;;;;;;15.70;12.40;;;;;;;;;;103774;1288;545035;-76
2023/08/20 20:26:27;;;;;;;13.70;12.20;;;;;;;;;;103675;1292;547843;-76
2023/08/20 20:30:05;;;;;;;15.60;11.80;;;;;;;;;;103609;1291;548196;-77
2023/08/20 20:33:42;;;;;;;14.70;11.40;;;;;;;;;;103557;1292;545218;-76
2023/08/20 20:37:39;;;;;;;14.70;11.40;;;;;;;;;;103499;1295;547913;-75
2023/08/20 20:40:57;;;;;;;16.20;11.00;;;;;;;;;;103592;1290;548186;-79
2023/08/20 20:44:31;;;;;;;22.60;12.10;;;;;;;;;;103614;1289;548574;-76
2023/08/20 20:48:06;;;;;;;22.60;11.40;;;;;;;;;;104260;1286;545309;-78
2023/08/20 20:51:44;;;;;;;19.70;10.90;;;;;;;;;;103785;1292;545010;-75
2023/08/20 20:55:27;;;;;;;15.90;11.00;;;;;;;;;;103580;1291;547793;-78
2023/08/20 20:59:04;;;;;;;16.10;10.20;;;;;;;;;;103648;1291;548136;-75
2023/08/20 21:02:42;;;;;;;19.80;10.70;;;;;;;;;;103594;1292;547559;-79
2023/08/20 21:06:14;;;;;;;13.00;10.20;;;;;;;;;;103987;1289;544769;-77
2023/08/20 21:09:56;;;;;;;13.00;9.20;;;;;;;;;;103599;1292;548804;-76
2023/08/20 21:13:28;;;;;;;12.80;9.40;;;;;;;;;;104129;1286;544817;-77